Data for 07/17/2010

Time Sea-Level Adjusted Pressure Absolute Pressure Temperature Relative Humidity Dew Point   
(mb) (inHg) (mb) (inHg) (C) (F) (%) (C) (F)
00:05 1019 30.09 848 25.04 21.2 70.2 31 3.6 38.5
00:10 1019 30.09 848 25.04 20.8 69.5 31 3.3 38
00:15 1019 30.09 848 25.04 20.8 69.4 32 3.7 38.6
00:20 1019 30.09 848 25.04 20.3 68.6 34 4.1 39.4
00:25 1019 30.09 848 25.04 20.1 68.2 34 4 39.2
00:30 1019 30.09 848 25.04 20.1 68.2 32 2.9 37.2
00:35 1019 30.09 848 25.04 20.7 69.2 33 4 39.2
00:40 1019 30.09 848 25.04 20.5 68.9 34 4.2 39.5
00:45 1019 30.09 848 25.04 20.1 68.1 35 4.2 39.5
00:50 1019 30.09 848 25.04 19.8 67.6 38 5.2 41.4
00:55 1019 30.09 848 25.04 19 66.2 41 5.7 42.2
01:00 1019 30.09 848 25.04 18.5 65.2 45 6.4 43.5
01:05 1019 30.09 848 25.04 18.7 65.7 43 5.9 42.6
01:10 1019 30.09 849 25.07 19 66.2 40 5.1 41.1
01:15 1019 30.09 849 25.07 18.7 65.6 41 5.4 41.8
01:20 1019 30.09 849 25.07 18 64.4 39 4.1 39.4
01:25 1019 30.09 849 25.07 17.9 64.1 42 5.1 41.1
01:30 1019 30.09 849 25.07 17.6 63.6 42 4.5 40.1
01:35 1019 30.09 849 25.07 17.4 63.4 42 4.7 40.4
01:40 1019 30.09 849 25.07 17.1 62.8 45 5.2 41.4
01:45 1020 30.12 849 25.07 16.7 62.1 45 4.9 40.8
01:50 1020 30.12 849 25.07 16.5 61.7 46 5 41
01:55 1020 30.12 849 25.07 16.7 62.1 41 3.6 38.5
02:00 1020 30.12 849 25.07 17.3 63.1 41 4 39.2
02:05 1020 30.12 849 25.07 17.3 63.2 41 3.9 39
02:10 1020 30.12 849 25.07 17.3 63.2 41 4.1 39.5
02:15 1020 30.12 849 25.07 17.1 62.8 43 4.5 40.1
02:20 1020 30.12 849 25.07 16.8 62.3 44 4.5 40.2
02:25 1020 30.12 849 25.07 16.7 62.1 43 4.4 39.8
02:30 1020 30.12 849 25.07 16.8 62.3 42 4.1 39.3
02:35 1020 30.12 849 25.07 17.2 62.9 39 3.2 37.8
02:40 1020 30.12 849 25.07 17.7 63.8 37 3 37.5
02:45 1020 30.12 849 25.07 17.9 64.1 36 2.9 37.2
02:50 1020 30.12 849 25.07 18 64.4 36 2.7 36.9
02:55 1020 30.12 849 25.07 18.3 64.9 35 2.9 37.2
03:00 1020 30.12 849 25.07 18.2 64.7 35 2.6 36.7
03:05 1020 30.12 849 25.07 18.1 64.6 35 2.5 36.6
03:10 1020 30.12 849 25.07 17.9 64.3 38 3.5 38.3
03:15 1020 30.12 849 25.07 17.9 64.1 40 4.2 39.6
03:20 1020 30.12 849 25.07 17.3 63.1 38 3.1 37.6
03:25 1020 30.12 849 25.07 16.9 62.4 39 3.1 37.6
03:30 1020 30.12 849 25.07 16.6 61.8 42 3.9 39
03:35 1020 30.12 849 25.07 16.2 61.1 43 3.8 38.8
03:40 1020 30.12 849 25.07 15.7 60.2 45 3.9 39.1
03:45 1020 30.12 849 25.07 15.4 59.7 45 3.5 38.3
03:50 1020 30.12 849 25.07 15.9 60.6 41 2.6 36.7
03:55 1020 30.12 849 25.07 16.2 61.1 40 2.6 36.6
04:00 1020 30.12 849 25.07 16.3 61.4 40 2.8 37.1
04:05 1020 30.12 850 25.1 16 60.8 42 3.1 37.5
04:10 1020 30.12 850 25.1 15.6 60.2 43 3.1 37.6
04:15 1020 30.12 850 25.1 15.9 60.6 43 3.3 37.9
04:20 1020 30.12 850 25.1 15.6 60.1 44 3.4 38.1
04:25 1020 30.12 850 25.1 15.3 59.5 44 3.1 37.6
04:30 1020 30.12 850 25.1 15.1 59.2 46 3.6 38.5
04:35 1021 30.15 850 25.1 14.6 58.4 47 3.6 38.6
04:40 1021 30.15 850 25.1 14.5 58.1 48 3.7 38.7
04:45 1021 30.15 850 25.1 14.6 58.2 46 3.1 37.5
04:50 1021 30.15 850 25.1 15 58.9 46 3.6 38.5
04:55 1021 30.15 850 25.1 15 59 44 3 37.4
05:00 1021 30.15 850 25.1 15.2 59.4 44 3.1 37.6
05:05 1021 30.15 850 25.1 15.4 59.7 43 3 37.4
05:10 1021 30.15 850 25.1 15.6 60.1 42 2.7 36.9
05:15 1021 30.15 850 25.1 15.7 60.2 41 2.7 36.8
05:20 1021 30.15 850 25.1 15.8 60.4 40 2.3 36.2
05:25 1021 30.15 850 25.1 16 60.8 41 2.8 37
05:30 1021 30.15 850 25.1 15.9 60.5 40 2.5 36.5
05:35 1021 30.15 850 25.1 15.9 60.6 41 2.6 36.7
05:40 1021 30.15 850 25.1 15.7 60.3 42 2.9 37.2
05:45 1021 30.15 850 25.1 15.2 59.3 46 3.7 38.6
05:50 1021 30.15 850 25.1 14.2 57.6 49 3.6 38.5
05:55 1021 30.15 850 25.1 14.2 57.5 47 3.2 37.8
06:00 1021 30.15 850 25.1 14 57.3 48 3.2 37.7
06:05 1021 30.15 850 25.1 14.2 57.6 46 2.9 37.3
06:10 1021 30.15 850 25.1 14.3 57.7 47 3.2 37.8
06:15 1021 30.15 850 25.1 14.3 57.8 44 2.3 36.2
06:20 1021 30.15 850 25.1 15.1 59.1 41 2.2 35.9
06:25 1021 30.15 850 25.1 15.5 59.9 40 2.2 35.9
06:30 1021 30.15 850 25.1 15.7 60.2 41 2.6 36.8
06:35 1021 30.15 850 25.1 15.6 60.1 41 2.4 36.4
06:40 1021 30.15 850 25.1 15.6 60.2 41 2.5 36.6
06:45 1021 30.15 850 25.1 15.8 60.4 40 2.3 36.2
06:50 1021 30.15 850 25.1 16 60.7 42 3 37.5
06:55 1021 30.15 850 25.1 15.8 60.4 43 3.3 37.9
07:00 1021 30.15 850 25.1 15.7 60.2 42 3 37.4
07:05 1021 30.15 850 25.1 15.9 60.5 42 2.9 37.3
07:10 1021 30.15 850 25.1 16.1 60.9 42 3.1 37.6
07:15 1021 30.15 850 25.1 16.2 61.2 43 3.7 38.7
07:20 1021 30.15 850 25.1 16.4 61.4 41 3 37.4
07:25 1021 30.15 850 25.1 16.6 61.8 43 4.1 39.4
07:30 1021 30.15 850 25.1 16.9 62.3 38 2.6 36.6
07:35 1021 30.15 850 25.1 17.1 62.7 40 3.4 38
07:40 1021 30.15 851 25.13 17.6 63.7 40 3.9 39
07:45 1021 30.15 851 25.13 18 64.5 42 5.1 41.3
07:50 1021 30.15 851 25.13 18.2 64.7 44 5.8 42.4
07:55 1021 30.15 851 25.13 18.4 65.1 44 6.1 43
08:00 1021 30.15 851 25.13 18.2 64.8 46 6.5 43.6
08:05 1021 30.15 851 25.13 18.7 65.7 43 6.1 43
08:10 1021 30.15 851 25.13 18.9 66 47 7.4 45.3
08:15 1021 30.15 851 25.13 19.2 66.6 45 7 44.6
08:20 1021 30.15 851 25.13 19.8 67.6 42 6.6 43.8
08:25 1022 30.18 851 25.13 19.8 67.7 41 6.4 43.6
08:30 1022 30.18 851 25.13 20.1 68.2 40 6.2 43.2
08:35 1022 30.18 851 25.13 20.9 69.6 38 6 42.9
08:40 1022 30.18 851 25.13 20.8 69.5 39 6.6 43.8
08:45 1022 30.18 851 25.13 20.3 68.6 40 6.3 43.4
08:50 1022 30.18 851 25.13 20.2 68.3 40 6.3 43.4
08:55 1022 30.18 851 25.13 20.7 69.2 39 6.5 43.6
09:00 1022 30.18 851 25.13 21.2 70.2 33 4.5 40.2
09:05 1022 30.18 851 25.13 21.9 71.3 29 3.2 37.8
09:10 1022 30.18 851 25.13 22 71.6 30 3.7 38.7
09:15 1022 30.18 851 25.13 21.7 71 30 3.4 38.1
09:20 1022 30.18 851 25.13 22 71.6 29 3.3 38
09:25 1022 30.18 851 25.13 22.9 73.2 29 3.9 39
09:30 1022 30.18 851 25.13 23.3 73.9 28 4.1 39.4
09:35 1022 30.18 851 25.13 23.2 73.8 28 4 39.1
09:40 1022 30.18 851 25.13 23.1 73.6 28 3.9 39
09:45 1022 30.18 851 25.13 23.3 74 28 4.1 39.5
09:50 1021 30.15 851 25.13 23.8 74.8 27 3.9 39
09:55 1021 30.15 851 25.13 24.1 75.4 27 4 39.2
10:00 1021 30.15 851 25.13 24.2 75.6 27 4 39.2
10:05 1021 30.15 851 25.13 24.4 75.8 25 3.4 38.2
10:10 1021 30.15 851 25.13 24.4 75.9 25 3.2 37.7
10:15 1021 30.15 851 25.13 24.8 76.6 23 2.8 37
10:20 1021 30.15 851 25.13 25 77 26 4.2 39.6
10:25 1021 30.15 851 25.13 24.9 76.8 26 4.2 39.5
10:30 1021 30.15 850 25.1 25.4 77.7 25 4.1 39.4
10:35 1021 30.15 850 25.1 25.4 77.7 24 3.4 38.1
10:40 1021 30.15 850 25.1 25.6 78.1 24 3.7 38.7
10:45 1021 30.15 850 25.1 25.4 77.7 23 3.3 37.9
10:50 1021 30.15 851 25.13 24.9 76.8 25 3.5 38.3
10:55 1021 30.15 850 25.1 24.9 76.8 25 3.5 38.4
11:00 1021 30.15 850 25.1 25 77 23 2.9 37.2
11:05 1021 30.15 850 25.1 24.7 76.4 24 3.1 37.6
11:10 1021 30.15 850 25.1 24.8 76.6 26 4.4 39.9
11:15 1021 30.15 850 25.1 24.3 75.7 26 3.8 38.8
11:20 1021 30.15 850 25.1 24.8 76.7 25 3.7 38.7
11:25 1021 30.15 850 25.1 25.1 77.1 25 3.9 39.1
11:30 1021 30.15 850 25.1 25.6 78 24 3.7 38.7
11:35 1021 30.15 850 25.1 25.9 78.7 21 2.3 36.2
11:40 1021 30.15 850 25.1 26.3 79.3 23 3.8 38.9
11:45 1021 30.15 850 25.1 26.2 79.2 22 3.4 38.1
11:50 1021 30.15 850 25.1 26.7 80 22 3.7 38.7
11:55 1021 30.15 850 25.1 26.6 79.8 22 3.3 38
12:00 1021 30.15 850 25.1 26.1 79 21 2.1 35.8
12:05 1021 30.15 850 25.1 25.6 78.2 23 3.1 37.6
12:10 1021 30.15 850 25.1 25.8 78.5 23 3.4 38.2
12:15 1021 30.15 850 25.1 26.3 79.4 22 3.3 37.9
12:20 1021 30.15 850 25.1 26.7 80.1 22 3.4 38.1
12:25 1021 30.15 850 25.1 27 80.7 21 3.3 37.9
12:30 1021 30.15 850 25.1 27.3 81.2 21 3.5 38.2
12:35 1021 30.15 850 25.1 27.2 81 21 3.1 37.7
12:40 1021 30.15 850 25.1 26.7 80.1 21 2.9 37.3
12:45 1021 30.15 850 25.1 26.3 79.3 22 3.1 37.6
12:50 1021 30.15 850 25.1 27 80.7 21 2.9 37.3
12:55 1021 30.15 850 25.1 27.9 82.1 19 2.6 36.7
13:00 1021 30.15 850 25.1 27.9 82.1 19 2.2 35.9
13:05 1020 30.12 850 25.1 27.7 81.9 19 2.6 36.7
13:10 1020 30.12 850 25.1 27.4 81.4 20 2.5 36.4
13:15 1020 30.12 850 25.1 27.8 82 19 2.6 36.7
13:20 1020 30.12 850 25.1 27.7 81.8 19 1.9 35.5
13:25 1020 30.12 850 25.1 28 82.4 18 2 35.5
13:30 1020 30.12 849 25.07 27.6 81.8 19 2.4 36.3
13:35 1020 30.12 849 25.07 26.9 80.5 20 2.7 36.8
13:40 1020 30.12 849 25.07 27.5 81.5 20 2.7 36.8
13:45 1020 30.12 849 25.07 27.5 81.5 20 3 37.4
13:50 1020 30.12 849 25.07 27.8 82.1 20 3 37.3
13:55 1020 30.12 849 25.07 28.5 83.3 20 3.5 38.3
14:00 1020 30.12 849 25.07 28.4 83.2 19 3.1 37.6
14:05 1020 30.12 849 25.07 29.4 84.9 18 3.1 37.6
14:10 1020 30.12 849 25.07 29.3 84.7 19 3.4 38.2
14:15 1020 30.12 849 25.07 29.3 84.8 18 3.2 37.8
14:20 1020 30.12 849 25.07 29.7 85.5 19 3.8 38.8
14:25 1020 30.12 849 25.07 29.7 85.5 19 3.6 38.6
14:30 1020 30.12 849 25.07 29.8 85.6 18 3.5 38.3
14:35 1020 30.12 849 25.07 29.4 84.9 18 2.8 37
14:40 1020 30.12 849 25.07 29.2 84.5 19 3.3 37.9
14:45 1020 30.12 849 25.07 29.7 85.4 17 2.6 36.6
14:50 1020 30.12 849 25.07 30 86.1 17 2.9 37.3
14:55 1019 30.09 849 25.07 29.8 85.7 17 2.6 36.6
15:00 1019 30.09 849 25.07 30.3 86.5 17 3.2 37.7
15:05 1019 30.09 849 25.07 30.3 86.5 17 2.8 37
15:10 1019 30.09 849 25.07 29.6 85.3 18 3.2 37.8
15:15 1019 30.09 849 25.07 29.8 85.6 17 2.2 36
15:20 1019 30.09 848 25.04 30 86 17 2.8 37
15:25 1019 30.09 848 25.04 30.7 87.2 17 3 37.3
15:30 1019 30.09 848 25.04 30.2 86.4 17 3.1 37.6
15:35 1019 30.09 848 25.04 30.2 86.4 18 3.3 37.9
15:40 1019 30.09 848 25.04 30.1 86.1 16 2.1 35.8
15:45 1019 30.09 848 25.04 30.5 86.9 15 1.6 34.8
15:50 1019 30.09 848 25.04 31 87.7 16 2.2 36
15:55 1019 30.09 848 25.04 30.5 87 16 2.2 36
16:00 1019 30.09 848 25.04 30.5 86.9 15 1.6 34.9
16:05 1019 30.09 848 25.04 30.6 87 15 1.7 35
16:10 1019 30.09 848 25.04 30.6 87 16 1.9 35.4
16:15 1019 30.09 848 25.04 30.2 86.4 17 2.6 36.7
16:20 1019 30.09 848 25.04 30.2 86.4 16 1.6 34.9
16:25 1019 30.09 848 25.04 30 86.1 15 1 33.9
16:30 1018 30.06 848 25.04 30.2 86.4 15 1.1 34
16:35 1018 30.06 848 25.04 30.4 86.7 15 1.2 34.1
16:40 1018 30.06 848 25.04 30.7 87.3 15 1.2 34.2
16:45 1018 30.06 848 25.04 30.8 87.5 15 1.4 34.5
16:50 1018 30.06 848 25.04 30.9 87.6 14 1.2 34.1
16:55 1018 30.06 848 25.04 31.5 88.6 14 1.2 34.2
17:00 1018 30.06 847 25.01 31.4 88.6 14 1 33.9
17:05 1018 30.06 847 25.01 30.8 87.4 14 1.1 33.9
17:10 1018 30.06 847 25.01 30.9 87.7 14 0.9 33.6
17:15 1018 30.06 847 25.01 31.1 88 14 0.5 32.9
17:20 1018 30.06 847 25.01 30.7 87.3 14 0.9 33.7
17:25 1018 30.06 847 25.01 31.1 87.9 14 0.9 33.6
17:30 1018 30.06 847 25.01 31.2 88.1 14 0.8 33.5
17:35 1018 30.06 847 25.01 30.4 86.7 14 0.6 33.1
17:40 1018 30.06 847 25.01 29.8 85.6 15 0.3 32.6
17:45 1018 30.06 847 25.01 30.1 86.2 15 1.4 34.4
17:50 1018 30.06 847 25.01 30.2 86.3 14 0.3 32.6
17:55 1018 30.06 847 25.01 30.9 87.6 14 0.9 33.6
18:00 1018 30.06 847 25.01 30.8 87.4 14 0.8 33.5
18:05 1018 30.06 847 25.01 30.1 86.2 14 0.4 32.7
18:10 1018 30.06 847 25.01 29.7 85.4 15 1 33.7
18:15 1018 30.06 847 25.01 30 85.9 15 0.5 32.9
18:20 1018 30.06 847 25.01 29.9 85.9 15 0.5 32.9
18:25 1018 30.06 847 25.01 29.9 85.8 15 0.6 33
18:30 1018 30.06 847 25.01 29.8 85.7 14 0.2 32.3
18:35 1018 30.06 847 25.01 29.7 85.5 15 0.5 32.9
18:40 1017 30.03 847 25.01 30 85.9 15 1.2 34.1
18:45 1017 30.03 847 25.01 29.9 85.8 14 0.1 32.2
18:50 1017 30.03 847 25.01 29.6 85.3 15 0.3 32.5
18:55 1017 30.03 847 25.01 29.4 85 15 0.1 32.3
19:00 1017 30.03 847 25.01 29.4 84.9 14 -0.1 31.8
19:05 1017 30.03 847 25.01 29.4 84.9 14 -0.1 31.9
19:10 1017 30.03 847 25.01 30 86.1 15 0.8 33.4
19:15 1017 30.03 846 24.98 29.6 85.2 14 0 32.1
19:20 1017 30.03 846 24.98 29.6 85.4 14 -0.3 31.4
19:25 1017 30.03 846 24.98 29.2 84.6 14 -0.3 31.5
19:30 1017 30.03 846 24.98 28.9 84.1 14 -0.5 31.1
19:35 1017 30.03 846 24.98 28.8 83.9 15 -0.4 31.3
19:40 1017 30.03 846 24.98 28.8 83.9 15 0.3 32.6
19:45 1017 30.03 846 24.98 28.7 83.7 15 0 32.1
19:50 1017 30.03 847 25.01 28.7 83.6 16 0.4 32.8
19:55 1017 30.03 847 25.01 28.6 83.5 16 0.5 32.9
20:00 1017 30.03 847 25.01 28.5 83.4 16 0.6 33.1
20:05 1018 30.06 847 25.01 27.5 81.5 25 6 42.8
20:10 1018 30.06 847 25.01 26.3 79.3 27 6.1 43
20:15 1018 30.06 847 25.01 25.9 78.6 27 5.7 42.3
20:20 1018 30.06 847 25.01 25.7 78.2 28 6.1 43
20:25 1018 30.06 847 25.01 25.4 77.8 28 6.1 42.9
20:30 1018 30.06 847 25.01 25.3 77.5 29 6.3 43.3
20:35 1018 30.06 847 25.01 25.1 77.1 29 6.1 43.1
20:40 1018 30.06 847 25.01 24.9 76.8 30 6.2 43.1
20:45 1018 30.06 847 25.01 24.7 76.5 30 6.1 43.1
20:50 1018 30.06 847 25.01 24.6 76.3 30 6.3 43.3
20:55 1018 30.06 847 25.01 24.5 76 30 6.2 43.1
21:00 1018 30.06 847 25.01 24.4 75.8 31 6.2 43.2
21:05 1018 30.06 847 25.01 24 75.3 32 6.4 43.5
21:10 1018 30.06 847 25.01 23.8 74.8 32 6.3 43.4
21:15 1018 30.06 847 25.01 23.6 74.4 33 6.4 43.5
21:20 1018 30.06 847 25.01 23.5 74.3 32 6.2 43.2
21:25 1018 30.06 847 25.01 23.5 74.2 33 6.3 43.3
21:30 1018 30.06 848 25.04 23.3 73.9 33 6.2 43.1
21:35 1018 30.06 848 25.04 23.2 73.8 33 6.2 43.1
21:40 1019 30.09 848 25.04 23.1 73.6 33 6.3 43.3
21:45 1019 30.09 848 25.04 22.9 73.2 34 6.2 43.2
21:50 1019 30.09 848 25.04 22.8 73 33 6 42.8
21:55 1019 30.09 848 25.04 22.8 73 33 6 42.9
22:00 1019 30.09 848 25.04 22.7 72.9 33 6 42.8
22:05 1019 30.09 848 25.04 22.6 72.6 34 6 42.8
22:10 1019 30.09 848 25.04 22.5 72.5 33 5.8 42.4
22:15 1019 30.09 848 25.04 22.5 72.4 34 5.9 42.6
22:20 1019 30.09 848 25.04 22.3 72.1 34 5.9 42.6
22:25 1019 30.09 848 25.04 22.2 71.9 34 5.7 42.3
22:30 1019 30.09 849 25.07 22 71.7 34 5.6 42.2
22:35 1019 30.09 848 25.04 22 71.5 34 5.7 42.3
22:40 1019 30.09 849 25.07 21.8 71.3 34 5.4 41.7
22:45 1019 30.09 849 25.07 21.8 71.3 34 5.4 41.8
22:50 1019 30.09 849 25.07 21.7 71.1 34 5.5 41.9
22:55 1019 30.09 849 25.07 21.5 70.8 35 5.5 41.9
23:00 1019 30.09 849 25.07 21.4 70.5 35 5.5 41.9
23:05 1020 30.12 849 25.07 21.3 70.3 35 5.4 41.7
23:10 1020 30.12 849 25.07 21.1 70.1 36 5.5 41.9
23:15 1019 30.09 849 25.07 21.1 70 35 5.3 41.6
23:20 1020 30.12 849 25.07 20.9 69.6 36 5.4 41.7
23:25 1020 30.12 849 25.07 20.8 69.4 36 5.2 41.4
23:30 1020 30.12 849 25.07 20.7 69.3 36 5.2 41.3
23:35 1020 30.12 849 25.07 20.7 69.3 36 5.1 41.2
23:40 1020 30.12 849 25.07 20.6 69.1 36 5.1 41.2
23:45 1020 30.12 849 25.07 20.6 69.1 36 5.1 41.2
23:50 1020 30.12 849 25.07 20.6 69 36 5.1 41.1
23:55 1020 30.12 849 25.07 20.4 68.8 36 5.1 41.1
24:00 1020 30.12 849 25.07 20.4 68.7 36 5 41.1